Time;durP1;ratioP1;P1;durP2;ratioP2;P2;SDS_P1;SDS_P2;PMS_P1;PMS_P2;Temp;Humidity;BMP_temperature;BMP_pressure;BME280_temperature;BME280_humidity;BME280_pressure;Samples;Min_cycle;Max_cycle;Signal;HPM_P1;HPM_P2
2021/03/27 00:00:02;;;;;;;62.28;24.00;;;;;;;;;;4959251;28;20041;-83
2021/03/27 00:02:33;;;;;;;65.63;21.23;;;;;;;;;;4976448;28;20475;-82
2021/03/27 00:05:02;;;;;;;43.47;16.85;;;;;;;;;;4958718;28;20037;-82
2021/03/27 00:07:34;;;;;;;43.80;16.17;;;;;;;;;;4958801;28;20034;-82
2021/03/27 00:10:09;;;;;;;49.65;15.55;;;;;;;;;;4958768;28;20027;-82
2021/03/27 00:12:38;;;;;;;51.35;17.00;;;;;;;;;;4959014;28;20109;-82
2021/03/27 00:15:23;;;;;;;49.63;14.50;;;;;;;;;;4958752;28;20031;-82
2021/03/27 00:17:50;;;;;;;59.00;16.48;;;;;;;;;;4958826;28;20027;-82
2021/03/27 00:20:34;;;;;;;57.78;16.75;;;;;;;;;;4958885;28;20115;-82
2021/03/27 00:23:02;;;;;;;50.03;15.90;;;;;;;;;;4958760;28;20034;-82
2021/03/27 00:25:31;;;;;;;54.88;16.52;;;;;;;;;;4976261;28;20106;-82
2021/03/27 00:28:13;;;;;;;44.92;16.05;;;;;;;;;;4958794;28;20026;-82
2021/03/27 00:30:43;;;;;;;50.40;15.95;;;;;;;;;;4959911;28;20035;-82
2021/03/27 00:33:10;;;;;;;49.90;15.93;;;;;;;;;;4959196;28;20027;-82
2021/03/27 00:35:40;;;;;;;58.42;17.13;;;;;;;;;;4958737;28;20033;-82
2021/03/27 00:38:09;;;;;;;51.42;15.75;;;;;;;;;;4957942;28;20031;-82
2021/03/27 00:40:40;;;;;;;53.92;15.65;;;;;;;;;;4976222;28;20030;-83
2021/03/27 00:43:10;;;;;;;48.17;16.55;;;;;;;;;;4958259;28;20027;-83
2021/03/27 00:45:42;;;;;;;49.45;15.38;;;;;;;;;;4958539;28;20027;-82
2021/03/27 00:48:22;;;;;;;57.35;18.23;;;;;;;;;;4976047;28;20035;-82
2021/03/27 00:50:52;;;;;;;48.45;15.05;;;;;;;;;;4957765;28;20037;-83
2021/03/27 00:53:39;;;;;;;46.38;14.38;;;;;;;;;;4957204;28;20082;-82
2021/03/27 00:56:15;;;;;;;58.72;16.70;;;;;;;;;;4957588;28;20074;-82
2021/03/27 00:58:47;;;;;;;51.17;15.85;;;;;;;;;;4957720;28;20047;-83
2021/03/27 01:01:14;;;;;;;53.42;15.73;;;;;;;;;;4957392;28;20030;-82
2021/03/27 01:03:43;;;;;;;50.90;15.60;;;;;;;;;;4975729;28;20050;-82
2021/03/27 01:06:11;;;;;;;49.80;16.00;;;;;;;;;;4958704;28;20030;-83
2021/03/27 01:08:38;;;;;;;52.65;16.60;;;;;;;;;;4958065;28;20026;-82
2021/03/27 01:11:09;;;;;;;44.15;16.23;;;;;;;;;;4957695;28;20034;-83
2021/03/27 01:13:37;;;;;;;45.58;15.30;;;;;;;;;;4957553;28;20034;-82
2021/03/27 01:16:05;;;;;;;53.78;16.52;;;;;;;;;;4957785;28;20034;-83
2021/03/27 01:18:49;;;;;;;59.65;18.77;;;;;;;;;;4957949;28;20035;-83
2021/03/27 01:21:17;;;;;;;46.85;14.65;;;;;;;;;;4957593;28;20023;-83
2021/03/27 01:23:44;;;;;;;46.25;14.05;;;;;;;;;;4975018;28;20057;-82
2021/03/27 01:26:18;;;;;;;56.17;15.70;;;;;;;;;;4957759;28;20030;-83
2021/03/27 01:28:48;;;;;;;50.30;15.00;;;;;;;;;;4957559;28;20173;-83
2021/03/27 01:31:24;;;;;;;41.78;14.80;;;;;;;;;;4957309;28;20031;-83
2021/03/27 01:33:56;;;;;;;38.72;14.63;;;;;;;;;;4957395;28;20037;-82
2021/03/27 01:36:29;;;;;;;45.47;14.35;;;;;;;;;;4957349;28;20027;-82
2021/03/27 01:38:57;;;;;;;36.42;13.35;;;;;;;;;;4958180;28;20035;-82
2021/03/27 01:41:26;;;;;;;38.45;13.90;;;;;;;;;;4974558;28;20023;-82
2021/03/27 01:44:05;;;;;;;43.55;12.55;;;;;;;;;;4957322;28;20037;-82
2021/03/27 01:46:38;;;;;;;35.15;12.73;;;;;;;;;;4957330;28;20031;-82
2021/03/27 01:49:17;;;;;;;43.60;12.80;;;;;;;;;;4957321;28;20027;-82
2021/03/27 01:51:46;;;;;;;42.08;12.80;;;;;;;;;;4957184;28;20027;-81
2021/03/27 01:54:16;;;;;;;45.22;12.82;;;;;;;;;;4957198;28;20499;-82
2021/03/27 01:56:45;;;;;;;44.50;13.25;;;;;;;;;;4957111;28;20058;-82
2021/03/27 01:59:15;;;;;;;33.25;12.60;;;;;;;;;;4956886;28;20031;-82
2021/03/27 02:01:58;;;;;;;34.55;11.73;;;;;;;;;;4957304;28;20026;-88
2021/03/27 02:04:29;;;;;;;34.25;12.45;;;;;;;;;;4960210;28;20110;-82
2021/03/27 02:06:58;;;;;;;34.17;13.02;;;;;;;;;;4961037;28;20042;-81
2021/03/27 02:09:30;;;;;;;41.33;13.10;;;;;;;;;;4967823;28;20423;-83
2021/03/27 02:12:08;;;;;;;43.42;13.07;;;;;;;;;;4967217;28;20035;-82
2021/03/27 02:15:10;;;;;;;37.78;12.75;;;;;;;;;;4960605;28;20029;-83
2021/03/27 02:17:43;;;;;;;42.85;13.98;;;;;;;;;;4899437;29;20037;-83
2021/03/27 02:20:19;;;;;;;37.22;13.15;;;;;;;;;;4948778;28;20487;-82
2021/03/27 02:23:03;;;;;;;40.08;12.98;;;;;;;;;;4960307;28;20567;-82
2021/03/27 02:25:55;;;;;;;45.25;14.65;;;;;;;;;;4960315;28;20534;-84
2021/03/27 02:28:37;;;;;;;35.90;12.02;;;;;;;;;;4938248;28;20491;-81
2021/03/27 02:31:25;;;;;;;31.75;10.52;;;;;;;;;;4960025;28;20415;-84
2021/03/27 02:33:55;;;;;;;42.42;12.93;;;;;;;;;;4960110;28;20551;-82
2021/03/27 02:36:32;;;;;;;43.47;13.82;;;;;;;;;;4977881;28;20074;-83
2021/03/27 02:39:04;;;;;;;33.35;11.75;;;;;;;;;;4959870;28;20039;-82
2021/03/27 02:41:36;;;;;;;38.75;12.15;;;;;;;;;;4960185;28;20018;-82
2021/03/27 02:44:07;;;;;;;38.05;12.68;;;;;;;;;;4960109;28;20126;-82
2021/03/27 02:46:42;;;;;;;34.92;12.25;;;;;;;;;;4960632;28;20019;-83
2021/03/27 02:49:27;;;;;;;37.97;12.07;;;;;;;;;;4960115;28;20470;-82
2021/03/27 02:52:12;;;;;;;39.03;12.00;;;;;;;;;;4977152;28;20037;-83
2021/03/27 02:54:46;;;;;;;42.17;12.15;;;;;;;;;;4959457;28;20054;-82
2021/03/27 02:57:31;;;;;;;38.78;13.05;;;;;;;;;;4959761;28;20531;-82
2021/03/27 03:00:03;;;;;;;40.80;11.43;;;;;;;;;;4976810;28;20391;-84
2021/03/27 03:02:46;;;;;;;39.20;13.70;;;;;;;;;;4977076;28;20035;-82
2021/03/27 03:05:31;;;;;;;36.15;12.40;;;;;;;;;;4959547;28;20038;-81
2021/03/27 03:08:15;;;;;;;29.70;10.77;;;;;;;;;;4977334;28;20062;-80
2021/03/27 03:10:47;;;;;;;45.05;12.23;;;;;;;;;;4959406;28;20058;-82
2021/03/27 03:13:16;;;;;;;30.75;12.15;;;;;;;;;;4976799;28;20446;-82
2021/03/27 03:15:48;;;;;;;41.78;13.63;;;;;;;;;;4958390;28;20082;-82
2021/03/27 03:18:18;;;;;;;36.05;11.77;;;;;;;;;;4959273;28;20364;-81
2021/03/27 03:20:55;;;;;;;39.78;11.95;;;;;;;;;;4977212;28;20105;-81
2021/03/27 03:23:27;;;;;;;34.58;12.38;;;;;;;;;;4960232;28;20023;-82
2021/03/27 03:26:03;;;;;;;39.28;12.07;;;;;;;;;;4959275;28;20124;-81
2021/03/27 03:28:29;;;;;;;44.45;13.98;;;;;;;;;;4976673;28;20038;-81
2021/03/27 03:30:58;;;;;;;39.92;13.50;;;;;;;;;;4959025;28;20051;-86
2021/03/27 03:33:31;;;;;;;42.60;14.18;;;;;;;;;;4976348;28;20027;-81
2021/03/27 03:35:57;;;;;;;39.17;12.98;;;;;;;;;;4959233;28;20054;-83
2021/03/27 03:38:39;;;;;;;37.17;12.80;;;;;;;;;;4976447;28;20073;-82
2021/03/27 03:41:14;;;;;;;53.80;18.73;;;;;;;;;;4975989;28;20030;-81
2021/03/27 03:44:19;;;;;;;58.20;17.52;;;;;;;;;;4958962;28;20037;-81
2021/03/27 03:46:48;;;;;;;42.53;14.63;;;;;;;;;;4897800;29;20421;-82
2021/03/27 03:49:17;;;;;;;54.33;16.10;;;;;;;;;;4897687;29;20032;-83
2021/03/27 03:51:46;;;;;;;47.60;14.48;;;;;;;;;;4921595;28;20483;-83
2021/03/27 03:54:31;;;;;;;41.95;13.63;;;;;;;;;;4958502;28;20057;-83
2021/03/27 03:57:06;;;;;;;41.45;16.02;;;;;;;;;;4958688;28;20125;-82
2021/03/27 03:59:46;;;;;;;36.90;12.68;;;;;;;;;;4958719;28;20039;-83
2021/03/27 04:02:22;;;;;;;36.55;12.52;;;;;;;;;;4958504;28;20121;-82
2021/03/27 04:04:51;;;;;;;41.10;15.60;;;;;;;;;;4958349;28;20127;-82
2021/03/27 04:07:22;;;;;;;48.17;14.85;;;;;;;;;;4958473;28;20026;-82
2021/03/27 04:09:54;;;;;;;40.38;13.75;;;;;;;;;;4958372;28;20038;-82
2021/03/27 04:12:26;;;;;;;38.80;14.85;;;;;;;;;;4958121;28;20027;-82
2021/03/27 04:15:10;;;;;;;45.43;16.20;;;;;;;;;;4958094;28;20029;-83
2021/03/27 04:17:36;;;;;;;;;;;;;;;;;;4958585;28;20487;-82
2021/03/27 04:20:05;;;;;;;35.63;15.40;;;;;;;;;;4958358;28;19914;-82
2021/03/27 04:22:38;;;;;;;44.28;14.40;;;;;;;;;;4958104;28;20082;-82
2021/03/27 04:25:07;;;;;;;34.67;12.18;;;;;;;;;;4958322;28;20023;-82
2021/03/27 04:27:37;;;;;;;44.97;16.05;;;;;;;;;;4957814;28;20148;-82
2021/03/27 04:30:07;;;;;;;41.47;15.63;;;;;;;;;;4958084;28;20451;-82
2021/03/27 04:32:39;;;;;;;43.67;15.38;;;;;;;;;;4957984;28;20059;-82
2021/03/27 04:35:14;;;;;;;45.97;16.05;;;;;;;;;;4975299;28;20077;-82
2021/03/27 04:37:44;;;;;;;52.40;17.55;;;;;;;;;;4957864;28;20031;-82
2021/03/27 04:40:13;;;;;;;45.47;15.93;;;;;;;;;;4957740;28;20050;-82
2021/03/27 04:42:46;;;;;;;39.85;14.18;;;;;;;;;;4958066;28;20026;-82
2021/03/27 04:45:26;;;;;;;42.55;15.00;;;;;;;;;;4958037;28;20391;-82
2021/03/27 04:48:11;;;;;;;44.58;15.73;;;;;;;;;;4957595;28;20042;-82
2021/03/27 04:50:43;;;;;;;63.13;17.38;;;;;;;;;;4957891;28;20118;-82
2021/03/27 04:53:23;;;;;;;55.13;17.23;;;;;;;;;;4957617;28;20047;-82
2021/03/27 04:56:07;;;;;;;38.88;16.00;;;;;;;;;;4957444;28;20030;-81
2021/03/27 04:58:51;;;;;;;48.15;17.33;;;;;;;;;;4957390;28;20130;-82
2021/03/27 05:01:17;;;;;;;44.97;15.07;;;;;;;;;;4957469;28;20054;-82
2021/03/27 05:03:47;;;;;;;47.15;16.58;;;;;;;;;;4957205;28;20039;-82
2021/03/27 05:06:35;;;;;;;63.15;17.95;;;;;;;;;;4957428;28;20399;-82
2021/03/27 05:09:13;;;;;;;50.40;17.67;;;;;;;;;;4957327;28;20031;-82
2021/03/27 05:11:45;;;;;;;61.50;19.75;;;;;;;;;;4975494;28;20026;-82
2021/03/27 05:14:20;;;;;;;56.42;17.65;;;;;;;;;;4957382;28;20030;-82
2021/03/27 05:16:54;;;;;;;56.65;18.70;;;;;;;;;;4957613;28;20067;-82
2021/03/27 05:19:33;;;;;;;51.58;18.35;;;;;;;;;;4957250;28;20514;-82
2021/03/27 05:22:05;;;;;;;54.38;17.58;;;;;;;;;;4957431;28;20030;-82
2021/03/27 05:24:35;;;;;;;46.63;15.50;;;;;;;;;;4957547;28;20027;-82
2021/03/27 05:27:04;;;;;;;45.05;14.57;;;;;;;;;;4957184;28;20026;-82
2021/03/27 05:29:42;;;;;;;47.72;16.42;;;;;;;;;;4974450;28;20034;-82
2021/03/27 05:32:09;;;;;;;49.13;16.65;;;;;;;;;;4957115;28;20027;-82
2021/03/27 05:34:40;;;;;;;48.65;14.70;;;;;;;;;;4974766;28;20034;-81
2021/03/27 05:37:06;;;;;;;46.30;16.80;;;;;;;;;;4974977;28;20023;-81
2021/03/27 05:39:40;;;;;;;43.15;14.55;;;;;;;;;;4960983;28;20394;-84
2021/03/27 05:42:25;;;;;;;37.38;13.48;;;;;;;;;;4961322;28;20026;-83
2021/03/27 05:45:10;;;;;;;38.47;13.48;;;;;;;;;;4978292;28;20030;-81
2021/03/27 05:47:36;;;;;;;46.05;14.68;;;;;;;;;;4961032;28;20034;-81
2021/03/27 05:50:07;;;;;;;42.30;16.40;;;;;;;;;;4960923;28;20123;-81
2021/03/27 05:52:36;;;;;;;42.92;13.65;;;;;;;;;;4978952;28;20478;-82
2021/03/27 05:55:08;;;;;;;43.03;14.48;;;;;;;;;;4961519;28;20038;-81
2021/03/27 05:57:37;;;;;;;45.10;13.75;;;;;;;;;;4960482;28;20031;-81
2021/03/27 06:00:28;;;;;;;47.47;14.60;;;;;;;;;;4960546;28;20034;-80
2021/03/27 06:03:13;;;;;;;41.08;13.55;;;;;;;;;;4960912;28;20034;-82
2021/03/27 06:05:42;;;;;;;39.53;14.10;;;;;;;;;;4961055;28;20062;-83
2021/03/27 06:08:08;;;;;;;39.83;14.13;;;;;;;;;;4961551;28;20027;-81
2021/03/27 06:10:38;;;;;;;33.78;13.95;;;;;;;;;;4978393;28;20039;-82
2021/03/27 06:13:10;;;;;;;40.17;14.93;;;;;;;;;;4977855;28;20031;-84
2021/03/27 06:15:45;;;;;;;36.83;15.40;;;;;;;;;;4960992;28;20031;-80
2021/03/27 06:18:22;;;;;;;35.60;15.10;;;;;;;;;;4960287;28;20538;-81
2021/03/27 06:20:59;;;;;;;38.08;14.70;;;;;;;;;;4960883;28;20105;-83
2021/03/27 06:23:44;;;;;;;39.10;15.10;;;;;;;;;;4960383;28;20058;-84
2021/03/27 06:26:28;;;;;;;35.35;14.77;;;;;;;;;;4978039;28;20353;-86
2021/03/27 06:28:58;;;;;;;41.05;16.15;;;;;;;;;;4960127;28;20027;-84
2021/03/27 06:31:30;;;;;;;33.47;14.48;;;;;;;;;;4961231;28;20121;-86
2021/03/27 06:34:25;;;;;;;28.33;13.05;;;;;;;;;;4960278;28;20035;-84
2021/03/27 06:37:09;;;;;;;29.98;14.60;;;;;;;;;;4960380;28;20031;-83
2021/03/27 06:40:03;;;;;;;31.15;13.70;;;;;;;;;;4960133;28;20073;-85
2021/03/27 06:42:52;;;;;;;29.73;13.13;;;;;;;;;;4960206;28;20509;-84
2021/03/27 06:45:27;;;;;;;31.35;14.00;;;;;;;;;;4961075;28;20035;-85
2021/03/27 06:47:54;;;;;;;32.90;13.75;;;;;;;;;;4959869;28;20140;-85
2021/03/27 06:50:20;;;;;;;32.45;14.15;;;;;;;;;;4977575;28;20089;-84
2021/03/27 06:53:06;;;;;;;30.10;13.00;;;;;;;;;;4959357;28;20056;-85
2021/03/27 06:55:51;;;;;;;27.98;12.98;;;;;;;;;;4930648;28;20078;-83
2021/03/27 06:58:20;;;;;;;30.02;13.90;;;;;;;;;;4959888;28;20496;-84
2021/03/27 07:00:58;;;;;;;33.88;14.45;;;;;;;;;;4959864;28;20045;-82
2021/03/27 07:03:40;;;;;;;33.83;13.73;;;;;;;;;;4976732;28;20019;-83
2021/03/27 07:06:09;;;;;;;36.25;14.43;;;;;;;;;;4959690;28;20494;-83
2021/03/27 07:08:35;;;;;;;29.70;13.77;;;;;;;;;;4976965;28;20364;-87
2021/03/27 07:11:24;;;;;;;33.58;15.80;;;;;;;;;;4959627;28;20023;-82
2021/03/27 07:14:16;;;;;;;33.95;14.50;;;;;;;;;;4959819;28;20114;-88
2021/03/27 07:16:48;;;;;;;32.20;13.63;;;;;;;;;;4960098;28;20035;-88
2021/03/27 07:19:15;;;;;;;33.35;13.48;;;;;;;;;;4960114;28;20129;-89
2021/03/27 07:22:04;;;;;;;25.90;12.40;;;;;;;;;;4961736;28;20131;-84
2021/03/27 07:24:43;;;;;;;25.98;13.38;;;;;;;;;;4948681;28;20498;-83
2021/03/27 07:27:09;;;;;;;28.58;13.85;;;;;;;;;;4978341;28;20054;-83
2021/03/27 07:29:51;;;;;;;27.27;14.27;;;;;;;;;;4967757;28;20030;-87
2021/03/27 07:32:35;;;;;;;27.48;13.73;;;;;;;;;;4961126;28;20432;-84
2021/03/27 07:35:21;;;;;;;30.35;14.25;;;;;;;;;;4959067;28;20027;-86
2021/03/27 07:38:06;;;;;;;29.88;14.77;;;;;;;;;;4959379;28;20114;-84
2021/03/27 07:40:38;;;;;;;28.48;14.10;;;;;;;;;;4959796;28;20045;-86
2021/03/27 07:43:36;;;;;;;28.02;13.05;;;;;;;;;;4958977;28;20117;-86
2021/03/27 07:46:08;;;;;;;21.30;12.02;;;;;;;;;;4927857;28;20436;-88
2021/03/27 07:48:53;;;;;;;26.33;13.98;;;;;;;;;;4959215;28;20162;-88
2021/03/27 07:51:38;;;;;;;25.55;13.30;;;;;;;;;;4958913;28;20027;-87
2021/03/27 07:54:31;;;;;;;26.92;13.50;;;;;;;;;;4958669;28;20055;-88
2021/03/27 07:57:03;;;;;;;30.38;13.60;;;;;;;;;;4937373;28;20068;-88
2021/03/27 07:59:48;;;;;;;21.25;12.18;;;;;;;;;;4959207;28;20047;-88
2021/03/27 08:02:32;;;;;;;25.98;13.63;;;;;;;;;;4975457;28;20034;-89
2021/03/27 08:05:01;;;;;;;25.13;13.20;;;;;;;;;;4958867;28;20113;-84
2021/03/27 08:07:31;;;;;;;28.65;13.68;;;;;;;;;;4959065;28;20533;-88
2021/03/27 08:10:00;;;;;;;27.25;13.40;;;;;;;;;;4958876;28;20026;-83
2021/03/27 08:12:29;;;;;;;24.17;12.68;;;;;;;;;;4959328;28;20030;-89
2021/03/27 08:15:14;;;;;;;27.48;13.32;;;;;;;;;;4959018;28;20025;-88
2021/03/27 08:17:50;;;;;;;24.45;12.43;;;;;;;;;;4975740;28;20045;-87
2021/03/27 08:20:28;;;;;;;21.40;11.15;;;;;;;;;;4958920;28;20392;-87
2021/03/27 08:22:54;;;;;;;22.85;12.02;;;;;;;;;;4976911;28;20456;-87
2021/03/27 08:25:39;;;;;;;23.08;11.18;;;;;;;;;;4958440;28;20081;-87
2021/03/27 08:28:08;;;;;;;35.45;18.98;;;;;;;;;;4958668;28;20030;-88
2021/03/27 08:30:42;;;;;;;24.02;11.95;;;;;;;;;;4958296;28;20027;-87
2021/03/27 08:33:14;;;;;;;24.83;12.00;;;;;;;;;;4975737;28;20034;-86
2021/03/27 08:36:01;;;;;;;23.25;10.98;;;;;;;;;;4958227;28;20030;-88
2021/03/27 08:38:28;;;;;;;20.63;11.77;;;;;;;;;;4958310;28;20369;-83
2021/03/27 08:41:12;;;;;;;22.50;11.68;;;;;;;;;;4975491;28;20069;-83
2021/03/27 08:44:00;;;;;;;21.48;10.95;;;;;;;;;;4958036;28;20026;-87
2021/03/27 08:46:33;;;;;;;23.02;11.80;;;;;;;;;;4957869;28;20411;-82
2021/03/27 08:49:33;;;;;;;53.05;28.88;;;;;;;;;;4958139;28;20093;-88
2021/03/27 08:52:17;;;;;;;23.50;13.10;;;;;;;;;;4958272;28;20030;-88
2021/03/27 08:54:59;;;;;;;19.30;10.98;;;;;;;;;;4975550;28;20055;-86
2021/03/27 08:57:42;;;;;;;18.55;9.75;;;;;;;;;;4958032;28;20510;-90
2021/03/27 09:00:11;;;;;;;17.08;9.35;;;;;;;;;;4958125;28;20550;-89
2021/03/27 09:02:51;;;;;;;19.20;10.68;;;;;;;;;;4958403;28;20035;-87
2021/03/27 09:05:31;;;;;;;20.98;9.75;;;;;;;;;;4957980;28;20475;-83
2021/03/27 09:08:16;;;;;;;21.25;10.50;;;;;;;;;;4975675;28;20030;-84
2021/03/27 09:10:54;;;;;;;20.38;10.15;;;;;;;;;;4958274;28;20038;-88
2021/03/27 09:13:20;;;;;;;19.05;9.30;;;;;;;;;;4957150;28;20035;-85
2021/03/27 09:16:05;;;;;;;17.17;9.18;;;;;;;;;;4958117;28;20027;-86
2021/03/27 09:18:36;;;;;;;19.95;9.88;;;;;;;;;;4975220;28;20027;-88
2021/03/27 09:21:06;;;;;;;16.60;8.47;;;;;;;;;;4958228;28;20030;-82
2021/03/27 09:23:36;;;;;;;14.25;8.50;;;;;;;;;;4958028;28;20479;-87
2021/03/27 09:26:12;;;;;;;17.05;9.38;;;;;;;;;;4957356;28;20027;-82
2021/03/27 09:28:56;;;;;;;20.85;9.27;;;;;;;;;;4957629;28;20077;-86
2021/03/27 09:31:32;;;;;;;17.27;9.10;;;;;;;;;;4957451;28;20027;-82
2021/03/27 09:33:58;;;;;;;21.65;9.63;;;;;;;;;;4957783;28;20062;-82
2021/03/27 09:36:36;;;;;;;21.23;9.65;;;;;;;;;;4958980;28;20027;-86
2021/03/27 09:39:02;;;;;;;19.85;10.55;;;;;;;;;;4957702;28;20027;-89
2021/03/27 09:41:47;;;;;;;22.05;10.45;;;;;;;;;;4957189;28;20054;-85
2021/03/27 09:44:36;;;;;;;16.88;9.05;;;;;;;;;;4957094;28;20034;-88
2021/03/27 09:47:19;;;;;;;17.60;9.88;;;;;;;;;;4974706;28;20106;-84
2021/03/27 09:49:45;;;;;;;21.05;10.35;;;;;;;;;;4957170;28;20035;-83
2021/03/27 09:52:11;;;;;;;17.10;9.70;;;;;;;;;;4956954;28;20031;-83
2021/03/27 09:54:42;;;;;;;22.05;10.68;;;;;;;;;;4973782;28;20046;-83
2021/03/27 09:57:27;;;;;;;18.85;9.93;;;;;;;;;;4976456;28;20034;-84
2021/03/27 09:59:56;;;;;;;20.83;11.30;;;;;;;;;;4976251;28;20031;-84
2021/03/27 10:02:32;;;;;;;20.35;9.70;;;;;;;;;;4976225;28;20022;-83
2021/03/27 10:05:24;;;;;;;23.25;9.40;;;;;;;;;;4976468;28;20061;-82
2021/03/27 10:08:09;;;;;;;21.57;9.43;;;;;;;;;;4954664;28;20054;-83
2021/03/27 10:10:49;;;;;;;20.35;9.40;;;;;;;;;;4976620;28;20088;-87
2021/03/27 10:13:24;;;;;;;17.40;9.32;;;;;;;;;;4976605;28;20022;-85
2021/03/27 10:15:54;;;;;;;20.27;9.60;;;;;;;;;;4976597;28;20026;-84
2021/03/27 10:18:30;;;;;;;20.52;8.40;;;;;;;;;;4976377;28;20033;-87
2021/03/27 10:21:02;;;;;;;19.27;8.38;;;;;;;;;;4994259;28;20030;-83
2021/03/27 10:23:28;;;;;;;16.40;7.70;;;;;;;;;;4994067;28;20035;-82
2021/03/27 10:26:13;;;;;;;16.00;7.95;;;;;;;;;;4996989;28;20022;-82
2021/03/27 10:28:44;;;;;;;17.40;8.43;;;;;;;;;;4980137;28;20033;-86
2021/03/27 10:31:13;;;;;;;19.88;9.05;;;;;;;;;;4979524;28;20070;-83
2021/03/27 10:33:42;;;;;;;19.75;8.55;;;;;;;;;;4980334;28;20117;-83
2021/03/27 10:36:14;;;;;;;17.55;8.27;;;;;;;;;;4985139;28;20033;-84
2021/03/27 10:38:43;;;;;;;19.27;8.70;;;;;;;;;;4983113;28;20042;-82
2021/03/27 10:41:12;;;;;;;22.80;8.25;;;;;;;;;;4980182;28;20023;-87
2021/03/27 10:43:55;;;;;;;18.02;9.15;;;;;;;;;;4980796;28;20034;-85
2021/03/27 10:46:53;;;;;;;18.23;8.88;;;;;;;;;;4979804;28;20030;-85
2021/03/27 10:49:33;;;;;;;21.42;8.35;;;;;;;;;;4948015;28;20089;-87
2021/03/27 10:52:25;;;;;;;17.55;7.90;;;;;;;;;;4980343;28;20339;-86
2021/03/27 10:54:51;;;;;;;21.60;8.23;;;;;;;;;;4979479;28;20383;-88
2021/03/27 10:57:24;;;;;;;20.25;8.20;;;;;;;;;;4979406;28;20022;-82
2021/03/27 11:00:02;;;;;;;21.60;8.23;;;;;;;;;;4979237;28;20033;-87
2021/03/27 11:02:42;;;;;;;17.48;8.02;;;;;;;;;;4979532;28;20034;-88
2021/03/27 11:05:12;;;;;;;16.58;7.80;;;;;;;;;;4979297;28;20117;-87
2021/03/27 11:08:01;;;;;;;19.73;8.43;;;;;;;;;;4979124;28;20037;-84
2021/03/27 11:10:27;;;;;;;22.45;8.88;;;;;;;;;;4970874;28;20051;-88
2021/03/27 11:13:12;;;;;;;20.08;8.30;;;;;;;;;;4978864;28;20110;-86
2021/03/27 11:15:57;;;;;;;21.85;8.32;;;;;;;;;;4996485;28;20089;-82
2021/03/27 11:18:34;;;;;;;20.65;8.75;;;;;;;;;;4978861;28;20034;-86
2021/03/27 11:21:09;;;;;;;16.23;8.20;;;;;;;;;;4978918;28;20030;-83
2021/03/27 11:23:44;;;;;;;18.73;8.68;;;;;;;;;;4978786;28;20050;-84
2021/03/27 11:26:29;;;;;;;20.40;8.20;;;;;;;;;;4979087;28;20029;-84
2021/03/27 11:29:00;;;;;;;17.98;8.65;;;;;;;;;;4978663;28;20529;-85
2021/03/27 11:31:42;;;;;;;21.23;9.15;;;;;;;;;;4978648;28;20054;-82
2021/03/27 11:34:28;;;;;;;20.92;8.95;;;;;;;;;;4996240;28;20022;-85
2021/03/27 11:37:03;;;;;;;17.60;8.70;;;;;;;;;;4995619;28;20053;-87
2021/03/27 11:39:41;;;;;;;22.45;8.50;;;;;;;;;;4978994;28;20113;-84
2021/03/27 11:42:26;;;;;;;20.48;8.95;;;;;;;;;;4978536;28;20022;-87
2021/03/27 11:44:55;;;;;;;23.60;9.60;;;;;;;;;;4978367;28;20030;-84
2021/03/27 11:47:40;;;;;;;21.23;8.38;;;;;;;;;;4978255;28;20066;-84
2021/03/27 11:50:09;;;;;;;27.08;11.55;;;;;;;;;;4978190;28;20030;-83
2021/03/27 11:52:35;;;;;;;24.30;9.35;;;;;;;;;;4977465;28;20022;-84
2021/03/27 11:55:16;;;;;;;22.70;7.90;;;;;;;;;;4976439;28;20037;-82
2021/03/27 11:57:52;;;;;;;18.02;8.15;;;;;;;;;;4958867;28;20038;-84
2021/03/27 12:00:48;;;;;;;20.27;8.45;;;;;;;;;;4958711;28;20081;-83
2021/03/27 12:03:32;;;;;;;22.77;8.95;;;;;;;;;;4946197;28;20400;-84
2021/03/27 12:06:19;;;;;;;23.83;8.40;;;;;;;;;;4976639;28;20069;-84
2021/03/27 12:08:55;;;;;;;21.70;8.57;;;;;;;;;;4936491;28;20047;-82
2021/03/27 12:11:30;;;;;;;25.13;8.90;;;;;;;;;;4958376;28;20023;-83
2021/03/27 12:14:13;;;;;;;21.30;9.02;;;;;;;;;;4958199;28;20472;-82
2021/03/27 12:16:43;;;;;;;20.40;8.73;;;;;;;;;;4975635;28;20051;-82
2021/03/27 12:19:13;;;;;;;20.45;8.57;;;;;;;;;;4959322;28;20487;-82
2021/03/27 12:22:05;;;;;;;17.45;8.93;;;;;;;;;;4958519;28;20030;-84
2021/03/27 12:24:48;;;;;;;18.85;8.02;;;;;;;;;;4954905;28;20069;-84
2021/03/27 12:27:29;;;;;;;21.20;9.07;;;;;;;;;;4958229;28;20026;-84
2021/03/27 12:30:05;;;;;;;20.88;8.52;;;;;;;;;;4976013;28;20371;-81
2021/03/27 12:32:40;;;;;;;20.33;8.45;;;;;;;;;;4976049;28;20034;-84
2021/03/27 12:35:15;;;;;;;25.92;9.30;;;;;;;;;;4957960;28;20115;-81
2021/03/27 12:37:53;;;;;;;20.55;8.57;;;;;;;;;;4958233;28;20085;-82
2021/03/27 12:40:26;;;;;;;19.75;8.40;;;;;;;;;;4958160;28;20094;-82
2021/03/27 12:43:05;;;;;;;21.48;8.73;;;;;;;;;;4957990;28;20031;-83
2021/03/27 12:45:40;;;;;;;22.27;8.80;;;;;;;;;;4958934;28;20026;-82
2021/03/27 12:48:09;;;;;;;19.90;7.68;;;;;;;;;;4957650;28;20091;-81
2021/03/27 12:50:41;;;;;;;19.00;8.48;;;;;;;;;;4957723;28;20436;-83
2021/03/27 12:53:34;;;;;;;15.70;7.45;;;;;;;;;;4962517;28;20394;-83
2021/03/27 12:56:08;;;;;;;18.83;7.70;;;;;;;;;;4955072;28;20125;-83
2021/03/27 12:58:47;;;;;;;13.43;6.95;;;;;;;;;;4977222;28;20109;-85
2021/03/27 13:01:25;;;;;;;16.35;7.53;;;;;;;;;;4977191;28;20026;-84
2021/03/27 13:03:54;;;;;;;17.58;6.63;;;;;;;;;;4976761;28;20030;-84
2021/03/27 13:06:21;;;;;;;17.50;6.63;;;;;;;;;;4976763;28;20034;-82
2021/03/27 13:09:05;;;;;;;14.00;6.10;;;;;;;;;;4994511;28;20074;-83
2021/03/27 13:11:46;;;;;;;12.93;6.43;;;;;;;;;;4976677;28;20069;-83
2021/03/27 13:14:31;;;;;;;13.57;6.00;;;;;;;;;;4976571;28;20037;-81
2021/03/27 13:17:03;;;;;;;15.13;7.00;;;;;;;;;;4976967;28;20565;-82
2021/03/27 13:19:33;;;;;;;15.05;6.30;;;;;;;;;;4976741;28;20025;-82
2021/03/27 13:22:02;;;;;;;12.65;6.47;;;;;;;;;;4976695;28;20367;-81
2021/03/27 13:24:35;;;;;;;11.98;5.50;;;;;;;;;;4976623;28;20027;-81
2021/03/27 13:27:08;;;;;;;13.73;6.78;;;;;;;;;;4976621;28;20552;-81
2021/03/27 13:29:34;;;;;;;;;;;;;;;;;;4976973;28;20053;-82
2021/03/27 13:32:06;;;;;;;12.43;6.05;;;;;;;;;;4976435;28;20280;-82
2021/03/27 13:34:34;;;;;;;14.10;6.40;;;;;;;;;;4976535;28;20037;-83
2021/03/27 13:37:05;;;;;;;12.80;6.57;;;;;;;;;;4976393;28;20030;-83
2021/03/27 13:39:31;;;;;;;13.32;5.95;;;;;;;;;;4976570;28;20036;-81
2021/03/27 13:42:00;;;;;;;13.32;5.65;;;;;;;;;;4994005;28;20479;-83
2021/03/27 13:44:32;;;;;;;11.20;4.78;;;;;;;;;;4976457;28;20046;-83
2021/03/27 13:47:14;;;;;;;13.52;5.47;;;;;;;;;;4994353;28;20521;-84
2021/03/27 13:50:10;;;;;;;10.07;5.10;;;;;;;;;;4976376;28;20145;-83
2021/03/27 13:52:39;;;;;;;10.73;5.78;;;;;;;;;;4963076;28;20041;-83
2021/03/27 13:55:17;;;;;;;12.85;4.93;;;;;;;;;;4956767;28;20085;-83
2021/03/27 13:58:02;;;;;;;11.63;5.78;;;;;;;;;;4956719;28;20122;-82
2021/03/27 14:00:31;;;;;;;11.55;5.32;;;;;;;;;;4977826;28;20102;-83
2021/03/27 14:03:05;;;;;;;13.50;5.88;;;;;;;;;;4960701;28;20535;-82
2021/03/27 14:05:31;;;;;;;;;;;;;;;;;;4961762;28;20026;-82
2021/03/27 14:08:15;;;;;;;12.18;5.72;;;;;;;;;;4960945;28;19906;-81
2021/03/27 14:10:51;;;;;;;11.32;5.10;;;;;;;;;;4979055;28;20042;-85
2021/03/27 14:13:22;;;;;;;7.78;3.83;;;;;;;;;;4979623;28;20361;-86
2021/03/27 14:16:09;;;;;;;11.38;2.53;;;;;;;;;;4961592;28;20542;-84
2021/03/27 14:19:01;;;;;;;8.15;1.95;;;;;;;;;;4963463;28;20353;-86
2021/03/27 14:21:27;;;;;;;3.80;1.40;;;;;;;;;;4939246;28;20135;-84
2021/03/27 14:23:58;;;;;;;5.18;2.55;;;;;;;;;;4960720;28;20117;-87
2021/03/27 14:26:25;;;;;;;3.58;2.00;;;;;;;;;;4960446;28;20130;-86
2021/03/27 14:29:09;;;;;;;4.03;1.50;;;;;;;;;;4959393;28;20039;-82
2021/03/27 14:31:38;;;;;;;3.03;1.73;;;;;;;;;;4946130;28;20023;-84
2021/03/27 14:34:23;;;;;;;3.35;1.33;;;;;;;;;;4960066;28;20037;-83
2021/03/27 14:36:59;;;;;;;3.45;1.50;;;;;;;;;;4960423;28;20062;-85
2021/03/27 14:39:35;;;;;;;6.75;2.03;;;;;;;;;;4944787;28;20023;-85
2021/03/27 14:42:05;;;;;;;11.70;1.88;;;;;;;;;;4959747;28;20034;-82
2021/03/27 14:44:50;;;;;;;7.47;2.00;;;;;;;;;;4959939;28;20023;-81
2021/03/27 14:47:16;;;;;;;4.85;2.17;;;;;;;;;;4959937;28;20027;-81
2021/03/27 14:49:51;;;;;;;8.80;2.67;;;;;;;;;;4960097;28;20038;-82
2021/03/27 14:52:20;;;;;;;11.48;5.43;;;;;;;;;;4957122;28;20064;-83
2021/03/27 14:55:05;;;;;;;11.45;4.32;;;;;;;;;;4995087;28;20073;-82
2021/03/27 14:57:53;;;;;;;4.00;2.30;;;;;;;;;;4963947;28;20045;-82
2021/03/27 15:00:22;;;;;;;4.93;2.45;;;;;;;;;;4979112;28;20035;-81
2021/03/27 15:03:05;;;;;;;4.47;2.00;;;;;;;;;;4978718;28;20037;-81
2021/03/27 15:05:33;;;;;;;5.90;1.90;;;;;;;;;;4964348;28;20010;-82
2021/03/27 15:08:22;;;;;;;3.92;1.73;;;;;;;;;;4976069;28;20046;-83
2021/03/27 15:10:57;;;;;;;3.22;1.65;;;;;;;;;;4972420;28;20101;-81
2021/03/27 15:13:27;;;;;;;6.90;2.05;;;;;;;;;;4978441;28;20081;-81